This is the latest recevied weather packets stored in our database for station/object WX7FGZ-5. If no packets are shown the sender has not sent any weather packets the latest 10 day(s).
| Time | Temp. | Humidity | Pressure | Rain* | Wind** | Luminosity | Snow |
|---|---|---|---|---|---|---|---|
| 1777563701 | 13.33° C | 26% | 1020 hPa | 0 mm | - | 621 W/m² | - |
| 1777563580 | 12.78° C | 28% | 1020 hPa | 0 mm | - | 605 W/m² | - |
| 1777563400 | 12.78° C | 28% | 1020 hPa | 0 mm | - | 605 W/m² | - |
| 1777563100 | 12.22° C | 29% | 1020 hPa | 0 mm | - | 591 W/m² | - |
| 1777562801 | 12.22° C | 30% | 1019.9 hPa | 0 mm | - | 566 W/m² | - |
| 1777562501 | 12.22° C | 31% | 1020 hPa | 0 mm | - | 541 W/m² | - |
| 1777561601 | 8.89° C | 38% | 1020.7 hPa | 0 mm | - | 499 W/m² | - |
| 1777561300 | 8.33° C | 38% | 1020.6 hPa | 0 mm | - | 480 W/m² | - |
| 1777560420 | 6.67° C | 42% | 1020.5 hPa | 0 mm | - | 425 W/m² | - |
| 1777559822 | 5.56° C | 43% | 1020.8 hPa | 0 mm | - | 374 W/m² | - |
| 1777559521 | 5.56° C | 42% | 1020.9 hPa | 0 mm | - | 364 W/m² | - |
| 1777559220 | 4.44° C | 44% | 1020.8 hPa | 0 mm | - | 343 W/m² | - |
| 1777558325 | 3.33° C | 46% | 1020.8 hPa | 0 mm | - | 290 W/m² | - |
| 1777557720 | 2.22° C | 50% | 1020.9 hPa | 0 mm | - | 250 W/m² | - |
| 1777555588 | -1.11° C | 57% | 1021 hPa | 0 mm | - | 105 W/m² | - |
| 1777555288 | -1.11° C | 57% | 1020.2 hPa | 0 mm | - | 83 W/m² | - |
| 1777554874 | -1.67° C | 57% | 1020.3 hPa | 0 mm | - | 63 W/m² | - |
| 1777554296 | -2.22° C | 58% | 1020.6 hPa | 0 mm | - | 33 W/m² | - |
| 1777554034 | -2.78° C | 59% | 1020.6 hPa | 0 mm | - | 26 W/m² | - |
| 1777553974 | -2.78° C | 59% | 1020.6 hPa | 0 mm | - | 26 W/m² | - |
| 1777553675 | -2.78° C | 58% | 1020.5 hPa | 0 mm | - | 19 W/m² | - |
| 1777552774 | -2.78° C | 58% | 1020.3 hPa | 0 mm | - | 7 W/m² | - |
| 1777552474 | -2.22° C | 57% | 1020.4 hPa | 0 mm | - | 0 W/m² | - |
| 1777552175 | -2.22° C | 58% | 1020.3 hPa | 0 mm | - | 0 W/m² | - |
| 1777551876 | -2.22° C | 58% | 1020.3 hPa | 0 mm | - | 0 W/m² | - |
* Rain latest hour (hover to see other rain measurements)
** Current wind speed in m/s (hover to see current wind gust speed)